sensor_id;sensor_type;location;lat;lon;timestamp;temperature;humidity
68480;DHT22;55469;48.934;12.050;2023-04-05T00:01:36;6.00;80.90
68480;DHT22;55469;48.934;12.050;2023-04-05T00:04:02;5.90;80.90
68480;DHT22;55469;48.934;12.050;2023-04-05T00:06:29;5.90;80.90
68480;DHT22;55469;48.934;12.050;2023-04-05T00:08:58;5.90;81.00
68480;DHT22;55469;48.934;12.050;2023-04-05T00:11:26;5.90;80.90
68480;DHT22;55469;48.934;12.050;2023-04-05T00:14:02;5.90;80.90
68480;DHT22;55469;48.934;12.050;2023-04-05T00:16:29;5.90;80.90
68480;DHT22;55469;48.934;12.050;2023-04-05T00:18:56;5.90;80.90
68480;DHT22;55469;48.934;12.050;2023-04-05T00:21:22;5.90;80.90
68480;DHT22;55469;48.934;12.050;2023-04-05T00:23:54;5.80;81.00
68480;DHT22;55469;48.934;12.050;2023-04-05T00:26:21;5.80;81.00
68480;DHT22;55469;48.934;12.050;2023-04-05T00:28:47;5.70;81.20
68480;DHT22;55469;48.934;12.050;2023-04-05T00:31:13;5.70;81.10
68480;DHT22;55469;48.934;12.050;2023-04-05T00:33:39;5.70;81.20
68480;DHT22;55469;48.934;12.050;2023-04-05T00:36:10;5.70;81.20
68480;DHT22;55469;48.934;12.050;2023-04-05T00:38:36;5.70;81.20
68480;DHT22;55469;48.934;12.050;2023-04-05T00:41:02;5.70;81.20
68480;DHT22;55469;48.934;12.050;2023-04-05T00:43:28;5.70;81.20
68480;DHT22;55469;48.934;12.050;2023-04-05T00:45:55;5.60;81.20
68480;DHT22;55469;48.934;12.050;2023-04-05T00:48:21;5.60;81.30
68480;DHT22;55469;48.934;12.050;2023-04-05T00:50:48;5.60;81.30
68480;DHT22;55469;48.934;12.050;2023-04-05T00:53:16;5.60;81.40
68480;DHT22;55469;48.934;12.050;2023-04-05T00:55:43;5.50;81.30
68480;DHT22;55469;48.934;12.050;2023-04-05T00:58:16;5.50;81.40
68480;DHT22;55469;48.934;12.050;2023-04-05T01:03:21;5.50;81.40
68480;DHT22;55469;48.934;12.050;2023-04-05T01:05:56;5.50;81.40
68480;DHT22;55469;48.934;12.050;2023-04-05T01:08:39;5.50;82.50
68480;DHT22;55469;48.934;12.050;2023-04-05T01:11:27;5.40;81.50
68480;DHT22;55469;48.934;12.050;2023-04-05T01:13:59;5.40;81.60
68480;DHT22;55469;48.934;12.050;2023-04-05T01:16:26;5.40;81.60
68480;DHT22;55469;48.934;12.050;2023-04-05T01:18:53;5.40;81.60
68480;DHT22;55469;48.934;12.050;2023-04-05T01:21:59;5.40;81.60
68480;DHT22;55469;48.934;12.050;2023-04-05T01:25:04;5.30;81.60
68480;DHT22;55469;48.934;12.050;2023-04-05T01:30:31;5.30;81.70
68480;DHT22;55469;48.934;12.050;2023-04-05T01:33:25;5.30;81.60
68480;DHT22;55469;48.934;12.050;2023-04-05T01:36:26;5.20;81.70
68480;DHT22;55469;48.934;12.050;2023-04-05T01:38:57;5.20;81.70
68480;DHT22;55469;48.934;12.050;2023-04-05T01:41:23;5.20;81.70
68480;DHT22;55469;48.934;12.050;2023-04-05T01:43:50;5.20;81.70
68480;DHT22;55469;48.934;12.050;2023-04-05T01:46:16;5.20;81.70
68480;DHT22;55469;48.934;12.050;2023-04-05T01:48:42;5.20;81.70
68480;DHT22;55469;48.934;12.050;2023-04-05T01:51:13;5.10;81.70
68480;DHT22;55469;48.934;12.050;2023-04-05T01:53:39;5.10;81.70
68480;DHT22;55469;48.934;12.050;2023-04-05T01:56:05;5.10;81.70
68480;DHT22;55469;48.934;12.050;2023-04-05T01:58:31;5.10;81.70
68480;DHT22;55469;48.934;12.050;2023-04-05T02:00:56;5.10;81.60
68480;DHT22;55469;48.934;12.050;2023-04-05T02:03:25;5.00;81.60
68480;DHT22;55469;48.934;12.050;2023-04-05T02:05:50;5.10;81.70
68480;DHT22;55469;48.934;12.050;2023-04-05T02:08:17;5.00;81.70
68480;DHT22;55469;48.934;12.050;2023-04-05T02:10:43;5.00;81.80
68480;DHT22;55469;48.934;12.050;2023-04-05T02:13:09;5.00;81.80
68480;DHT22;55469;48.934;12.050;2023-04-05T02:15:35;5.00;81.70
68480;DHT22;55469;48.934;12.050;2023-04-05T02:18:00;4.90;81.70
68480;DHT22;55469;48.934;12.050;2023-04-05T02:20:27;5.00;81.70
68480;DHT22;55469;48.934;12.050;2023-04-05T02:22:53;4.90;81.70
68480;DHT22;55469;48.934;12.050;2023-04-05T02:25:19;4.90;81.80
68480;DHT22;55469;48.934;12.050;2023-04-05T02:27:45;4.90;81.80
68480;DHT22;55469;48.934;12.050;2023-04-05T02:30:11;4.90;81.70
68480;DHT22;55469;48.934;12.050;2023-04-05T02:32:40;4.90;81.70
68480;DHT22;55469;48.934;12.050;2023-04-05T02:35:12;4.80;81.70
68480;DHT22;55469;48.934;12.050;2023-04-05T02:37:38;4.80;81.70
68480;DHT22;55469;48.934;12.050;2023-04-05T02:40:07;4.80;81.80
68480;DHT22;55469;48.934;12.050;2023-04-05T02:42:35;4.80;81.80
68480;DHT22;55469;48.934;12.050;2023-04-05T02:45:01;4.80;81.80
68480;DHT22;55469;48.934;12.050;2023-04-05T02:47:27;4.80;81.70
68480;DHT22;55469;48.934;12.050;2023-04-05T02:49:52;4.80;81.70
68480;DHT22;55469;48.934;12.050;2023-04-05T02:52:18;4.70;81.60
68480;DHT22;55469;48.934;12.050;2023-04-05T02:54:44;4.70;81.70
68480;DHT22;55469;48.934;12.050;2023-04-05T02:57:11;4.70;81.70
68480;DHT22;55469;48.934;12.050;2023-04-05T02:59:38;4.70;81.70
68480;DHT22;55469;48.934;12.050;2023-04-05T03:02:08;4.60;82.50
68480;DHT22;55469;48.934;12.050;2023-04-05T03:04:34;4.70;81.80
68480;DHT22;55469;48.934;12.050;2023-04-05T03:07:01;4.60;81.70
68480;DHT22;55469;48.934;12.050;2023-04-05T03:09:28;4.60;81.70
68480;DHT22;55469;48.934;12.050;2023-04-05T03:12:01;4.60;81.80
68480;DHT22;55469;48.934;12.050;2023-04-05T03:14:31;4.60;81.60
68480;DHT22;55469;48.934;12.050;2023-04-05T03:16:57;4.60;81.70
68480;DHT22;55469;48.934;12.050;2023-04-05T03:19:24;4.60;81.70
68480;DHT22;55469;48.934;12.050;2023-04-05T03:21:51;4.50;81.70
68480;DHT22;55469;48.934;12.050;2023-04-05T03:24:17;4.50;81.70
68480;DHT22;55469;48.934;12.050;2023-04-05T03:26:45;4.50;81.70
68480;DHT22;55469;48.934;12.050;2023-04-05T03:29:11;4.50;82.30
68480;DHT22;55469;48.934;12.050;2023-04-05T03:31:37;4.50;81.70
68480;DHT22;55469;48.934;12.050;2023-04-05T03:34:04;4.40;81.70
68480;DHT22;55469;48.934;12.050;2023-04-05T03:36:29;4.40;81.70
68480;DHT22;55469;48.934;12.050;2023-04-05T03:39:09;4.40;81.80
68480;DHT22;55469;48.934;12.050;2023-04-05T03:41:39;4.40;81.80
68480;DHT22;55469;48.934;12.050;2023-04-05T03:44:06;4.40;81.90
68480;DHT22;55469;48.934;12.050;2023-04-05T03:46:32;4.40;81.90
68480;DHT22;55469;48.934;12.050;2023-04-05T03:48:58;4.40;81.90
68480;DHT22;55469;48.934;12.050;2023-04-05T03:51:25;4.30;81.80
68480;DHT22;55469;48.934;12.050;2023-04-05T03:53:52;4.30;81.90
68480;DHT22;55469;48.934;12.050;2023-04-05T03:56:18;4.30;81.90
68480;DHT22;55469;48.934;12.050;2023-04-05T03:58:44;4.20;82.00
68480;DHT22;55469;48.934;12.050;2023-04-05T04:01:10;4.30;83.00
68480;DHT22;55469;48.934;12.050;2023-04-05T04:03:36;4.30;81.80
68480;DHT22;55469;48.934;12.050;2023-04-05T04:06:03;4.20;81.80
68480;DHT22;55469;48.934;12.050;2023-04-05T04:08:29;4.20;81.90
68480;DHT22;55469;48.934;12.050;2023-04-05T04:10:55;4.20;81.90
68480;DHT22;55469;48.934;12.050;2023-04-05T04:13:21;4.20;82.00
68480;DHT22;55469;48.934;12.050;2023-04-05T04:15:47;4.20;81.90
68480;DHT22;55469;48.934;12.050;2023-04-05T04:18:12;4.10;81.90
68480;DHT22;55469;48.934;12.050;2023-04-05T04:20:38;4.10;81.90
68480;DHT22;55469;48.934;12.050;2023-04-05T04:23:04;4.10;81.90
68480;DHT22;55469;48.934;12.050;2023-04-05T04:25:34;4.10;81.90
68480;DHT22;55469;48.934;12.050;2023-04-05T04:28:02;4.10;81.90
68480;DHT22;55469;48.934;12.050;2023-04-05T04:30:28;4.10;81.90
68480;DHT22;55469;48.934;12.050;2023-04-05T04:32:54;4.00;81.90
68480;DHT22;55469;48.934;12.050;2023-04-05T04:35:28;4.00;81.90
68480;DHT22;55469;48.934;12.050;2023-04-05T04:37:56;4.00;81.90
68480;DHT22;55469;48.934;12.050;2023-04-05T04:40:34;4.00;81.90
68480;DHT22;55469;48.934;12.050;2023-04-05T04:43:09;4.00;82.00
68480;DHT22;55469;48.934;12.050;2023-04-05T04:45:48;4.00;82.00
68480;DHT22;55469;48.934;12.050;2023-04-05T04:48:15;3.90;81.90
68480;DHT22;55469;48.934;12.050;2023-04-05T04:50:44;3.90;82.00
68480;DHT22;55469;48.934;12.050;2023-04-05T04:53:11;3.90;81.90
68480;DHT22;55469;48.934;12.050;2023-04-05T04:55:44;3.90;82.20
68480;DHT22;55469;48.934;12.050;2023-04-05T04:58:11;3.90;82.20
68480;DHT22;55469;48.934;12.050;2023-04-05T05:00:41;3.80;82.10
68480;DHT22;55469;48.934;12.050;2023-04-05T05:03:09;3.80;82.00
68480;DHT22;55469;48.934;12.050;2023-04-05T05:05:42;3.90;82.00
68480;DHT22;55469;48.934;12.050;2023-04-05T05:08:14;3.80;81.90
68480;DHT22;55469;48.934;12.050;2023-04-05T05:10:41;3.80;82.00
68480;DHT22;55469;48.934;12.050;2023-04-05T05:13:07;3.80;82.00
68480;DHT22;55469;48.934;12.050;2023-04-05T05:15:33;3.80;81.90
68480;DHT22;55469;48.934;12.050;2023-04-05T05:17:59;3.80;82.00
68480;DHT22;55469;48.934;12.050;2023-04-05T05:20:25;3.80;81.90
68480;DHT22;55469;48.934;12.050;2023-04-05T05:22:53;3.70;81.90
68480;DHT22;55469;48.934;12.050;2023-04-05T05:25:19;3.70;81.90
68480;DHT22;55469;48.934;12.050;2023-04-05T05:27:49;3.70;82.00
68480;DHT22;55469;48.934;12.050;2023-04-05T05:30:15;3.70;82.10
68480;DHT22;55469;48.934;12.050;2023-04-05T05:32:41;3.70;82.00
68480;DHT22;55469;48.934;12.050;2023-04-05T05:35:07;3.70;81.90
68480;DHT22;55469;48.934;12.050;2023-04-05T05:37:34;3.70;82.00
68480;DHT22;55469;48.934;12.050;2023-04-05T05:40:01;3.60;82.00
68480;DHT22;55469;48.934;12.050;2023-04-05T05:42:28;3.70;82.10
68480;DHT22;55469;48.934;12.050;2023-04-05T05:44:54;3.60;82.10
68480;DHT22;55469;48.934;12.050;2023-04-05T05:47:19;3.60;82.10
68480;DHT22;55469;48.934;12.050;2023-04-05T05:49:46;3.60;82.20
68480;DHT22;55469;48.934;12.050;2023-04-05T05:52:13;3.60;82.30
68480;DHT22;55469;48.934;12.050;2023-04-05T05:54:39;3.60;82.30
68480;DHT22;55469;48.934;12.050;2023-04-05T05:57:05;3.60;82.30
68480;DHT22;55469;48.934;12.050;2023-04-05T05:59:31;3.60;82.20
68480;DHT22;55469;48.934;12.050;2023-04-05T06:01:57;3.60;82.20
68480;DHT22;55469;48.934;12.050;2023-04-05T06:04:23;3.60;82.30
68480;DHT22;55469;48.934;12.050;2023-04-05T06:06:48;3.60;82.20
68480;DHT22;55469;48.934;12.050;2023-04-05T06:09:16;3.60;82.20
68480;DHT22;55469;48.934;12.050;2023-04-05T06:11:42;3.60;82.20
68480;DHT22;55469;48.934;12.050;2023-04-05T06:14:07;3.50;82.20
68480;DHT22;55469;48.934;12.050;2023-04-05T06:16:33;3.60;82.20
68480;DHT22;55469;48.934;12.050;2023-04-05T06:19:00;3.60;82.10
68480;DHT22;55469;48.934;12.050;2023-04-05T06:21:26;3.60;82.30
68480;DHT22;55469;48.934;12.050;2023-04-05T06:23:52;3.60;82.20
68480;DHT22;55469;48.934;12.050;2023-04-05T06:26:19;3.50;82.10
68480;DHT22;55469;48.934;12.050;2023-04-05T06:28:48;3.60;82.10
68480;DHT22;55469;48.934;12.050;2023-04-05T06:31:15;3.50;82.00
68480;DHT22;55469;48.934;12.050;2023-04-05T06:33:42;3.60;82.10
68480;DHT22;55469;48.934;12.050;2023-04-05T06:36:09;3.60;82.00
68480;DHT22;55469;48.934;12.050;2023-04-05T06:38:35;3.60;82.00
68480;DHT22;55469;48.934;12.050;2023-04-05T06:41:02;3.60;82.00
68480;DHT22;55469;48.934;12.050;2023-04-05T06:43:28;3.60;82.00
68480;DHT22;55469;48.934;12.050;2023-04-05T06:45:55;3.60;81.90
68480;DHT22;55469;48.934;12.050;2023-04-05T06:48:21;3.60;81.80
68480;DHT22;55469;48.934;12.050;2023-04-05T06:50:55;3.60;81.70
68480;DHT22;55469;48.934;12.050;2023-04-05T06:53:21;3.60;81.70
68480;DHT22;55469;48.934;12.050;2023-04-05T06:55:51;3.70;81.70
68480;DHT22;55469;48.934;12.050;2023-04-05T06:58:16;3.70;81.50
68480;DHT22;55469;48.934;12.050;2023-04-05T07:00:42;3.70;81.30
68480;DHT22;55469;48.934;12.050;2023-04-05T07:03:08;3.80;81.20
68480;DHT22;55469;48.934;12.050;2023-04-05T07:05:33;3.80;81.00
68480;DHT22;55469;48.934;12.050;2023-04-05T07:07:59;3.80;80.90
68480;DHT22;55469;48.934;12.050;2023-04-05T07:10:28;3.80;80.90
68480;DHT22;55469;48.934;12.050;2023-04-05T07:12:53;3.80;80.90
68480;DHT22;55469;48.934;12.050;2023-04-05T07:15:19;3.80;80.80
68480;DHT22;55469;48.934;12.050;2023-04-05T07:17:45;3.80;80.80
68480;DHT22;55469;48.934;12.050;2023-04-05T07:20:11;3.80;80.80
68480;DHT22;55469;48.934;12.050;2023-04-05T07:22:37;3.80;80.70
68480;DHT22;55469;48.934;12.050;2023-04-05T07:25:02;3.80;80.70
68480;DHT22;55469;48.934;12.050;2023-04-05T07:27:29;3.90;80.70
68480;DHT22;55469;48.934;12.050;2023-04-05T07:30:02;3.90;80.60
68480;DHT22;55469;48.934;12.050;2023-04-05T07:32:28;3.90;80.60
68480;DHT22;55469;48.934;12.050;2023-04-05T07:34:53;3.90;80.60
68480;DHT22;55469;48.934;12.050;2023-04-05T07:37:21;3.90;80.60
68480;DHT22;55469;48.934;12.050;2023-04-05T07:39:46;3.90;80.50
68480;DHT22;55469;48.934;12.050;2023-04-05T07:45:07;4.00;80.50
68480;DHT22;55469;48.934;12.050;2023-04-05T07:47:33;3.90;80.50
68480;DHT22;55469;48.934;12.050;2023-04-05T07:49:59;4.00;80.50
68480;DHT22;55469;48.934;12.050;2023-04-05T07:52:30;4.00;80.30
68480;DHT22;55469;48.934;12.050;2023-04-05T07:55:02;4.00;80.40
68480;DHT22;55469;48.934;12.050;2023-04-05T07:57:28;4.00;80.20
68480;DHT22;55469;48.934;12.050;2023-04-05T07:59:55;4.10;80.30
68480;DHT22;55469;48.934;12.050;2023-04-05T08:02:24;4.10;80.30
68480;DHT22;55469;48.934;12.050;2023-04-05T08:04:49;4.10;80.10
68480;DHT22;55469;48.934;12.050;2023-04-05T08:07:15;4.10;80.10
68480;DHT22;55469;48.934;12.050;2023-04-05T08:09:42;4.10;80.20
68480;DHT22;55469;48.934;12.050;2023-04-05T08:12:08;4.10;80.20
68480;DHT22;55469;48.934;12.050;2023-04-05T08:14:35;4.10;80.10
68480;DHT22;55469;48.934;12.050;2023-04-05T08:17:01;4.20;80.30
68480;DHT22;55469;48.934;12.050;2023-04-05T08:19:27;4.20;80.20
68480;DHT22;55469;48.934;12.050;2023-04-05T08:21:52;4.20;80.10
68480;DHT22;55469;48.934;12.050;2023-04-05T08:24:18;4.20;80.00
68480;DHT22;55469;48.934;12.050;2023-04-05T08:26:44;4.20;79.90
68480;DHT22;55469;48.934;12.050;2023-04-05T08:29:10;4.30;79.80
68480;DHT22;55469;48.934;12.050;2023-04-05T08:31:35;4.30;79.80
68480;DHT22;55469;48.934;12.050;2023-04-05T08:34:01;4.30;79.90
68480;DHT22;55469;48.934;12.050;2023-04-05T08:36:27;4.30;79.80
68480;DHT22;55469;48.934;12.050;2023-04-05T08:38:52;4.30;79.70
68480;DHT22;55469;48.934;12.050;2023-04-05T08:41:21;4.30;79.70
68480;DHT22;55469;48.934;12.050;2023-04-05T08:43:59;4.40;79.60
68480;DHT22;55469;48.934;12.050;2023-04-05T08:46:29;4.30;79.70
68480;DHT22;55469;48.934;12.050;2023-04-05T08:48:57;4.40;79.70
68480;DHT22;55469;48.934;12.050;2023-04-05T08:51:24;4.40;80.80
68480;DHT22;55469;48.934;12.050;2023-04-05T08:53:51;4.40;79.40
68480;DHT22;55469;48.934;12.050;2023-04-05T08:56:31;4.40;79.40
68480;DHT22;55469;48.934;12.050;2023-04-05T08:59:05;4.50;79.40
68480;DHT22;55469;48.934;12.050;2023-04-05T09:01:35;4.40;79.60
68480;DHT22;55469;48.934;12.050;2023-04-05T09:04:08;4.40;79.60
68480;DHT22;55469;48.934;12.050;2023-04-05T09:06:39;4.50;79.80
68480;DHT22;55469;48.934;12.050;2023-04-05T09:09:06;4.50;79.30
68480;DHT22;55469;48.934;12.050;2023-04-05T09:11:33;4.50;79.70
68480;DHT22;55469;48.934;12.050;2023-04-05T09:14:02;4.60;79.40
68480;DHT22;55469;48.934;12.050;2023-04-05T09:16:31;4.60;79.30
68480;DHT22;55469;48.934;12.050;2023-04-05T09:18:58;4.60;79.50
68480;DHT22;55469;48.934;12.050;2023-04-05T09:21:27;4.60;79.30
68480;DHT22;55469;48.934;12.050;2023-04-05T09:23:53;4.70;79.30
68480;DHT22;55469;48.934;12.050;2023-04-05T09:26:24;4.70;79.30
68480;DHT22;55469;48.934;12.050;2023-04-05T09:28:50;4.80;79.20
68480;DHT22;55469;48.934;12.050;2023-04-05T09:31:30;4.80;78.70
68480;DHT22;55469;48.934;12.050;2023-04-05T09:33:59;4.90;78.80
68480;DHT22;55469;48.934;12.050;2023-04-05T09:36:26;4.90;78.70
68480;DHT22;55469;48.934;12.050;2023-04-05T09:38:53;4.90;78.60
68480;DHT22;55469;48.934;12.050;2023-04-05T09:41:29;5.00;78.50
68480;DHT22;55469;48.934;12.050;2023-04-05T09:43:55;5.00;78.50
68480;DHT22;55469;48.934;12.050;2023-04-05T09:46:41;5.10;78.30
68480;DHT22;55469;48.934;12.050;2023-04-05T09:49:07;5.10;78.10
68480;DHT22;55469;48.934;12.050;2023-04-05T09:51:36;5.20;78.10
68480;DHT22;55469;48.934;12.050;2023-04-05T09:54:07;5.20;78.10
68480;DHT22;55469;48.934;12.050;2023-04-05T09:56:37;5.30;78.00
68480;DHT22;55469;48.934;12.050;2023-04-05T09:59:09;5.30;78.00
68480;DHT22;55469;48.934;12.050;2023-04-05T10:01:37;5.30;77.70
68480;DHT22;55469;48.934;12.050;2023-04-05T10:04:04;5.40;77.70
68480;DHT22;55469;48.934;12.050;2023-04-05T10:09:04;5.50;77.60
68480;DHT22;55469;48.934;12.050;2023-04-05T10:11:31;5.50;77.40
68480;DHT22;55469;48.934;12.050;2023-04-05T10:14:00;5.50;77.10
68480;DHT22;55469;48.934;12.050;2023-04-05T10:16:31;5.60;77.00
68480;DHT22;55469;48.934;12.050;2023-04-05T10:18:58;5.70;77.10
68480;DHT22;55469;48.934;12.050;2023-04-05T10:21:29;5.70;77.10
68480;DHT22;55469;48.934;12.050;2023-04-05T10:27:04;5.70;77.10
68480;DHT22;55469;48.934;12.050;2023-04-05T10:29:46;5.80;76.80
68480;DHT22;55469;48.934;12.050;2023-04-05T10:32:29;5.80;76.60
68480;DHT22;55469;48.934;12.050;2023-04-05T10:35:06;5.80;76.70
68480;DHT22;55469;48.934;12.050;2023-04-05T10:40:13;5.90;76.50
68480;DHT22;55469;48.934;12.050;2023-04-05T10:42:42;5.90;76.30
68480;DHT22;55469;48.934;12.050;2023-04-05T10:45:11;6.00;76.30
68480;DHT22;55469;48.934;12.050;2023-04-05T10:47:47;6.00;75.80
68480;DHT22;55469;48.934;12.050;2023-04-05T10:50:23;6.10;75.70
68480;DHT22;55469;48.934;12.050;2023-04-05T10:52:51;6.20;75.40
68480;DHT22;55469;48.934;12.050;2023-04-05T10:55:18;6.20;75.70
68480;DHT22;55469;48.934;12.050;2023-04-05T10:57:46;6.20;75.50
68480;DHT22;55469;48.934;12.050;2023-04-05T11:00:15;6.30;75.50
68480;DHT22;55469;48.934;12.050;2023-04-05T11:02:42;6.40;75.30
68480;DHT22;55469;48.934;12.050;2023-04-05T11:05:34;6.40;75.10
68480;DHT22;55469;48.934;12.050;2023-04-05T11:08:05;6.50;74.90
68480;DHT22;55469;48.934;12.050;2023-04-05T11:10:36;6.50;74.90
68480;DHT22;55469;48.934;12.050;2023-04-05T11:13:08;6.60;74.90
68480;DHT22;55469;48.934;12.050;2023-04-05T11:15:35;6.60;74.70
68480;DHT22;55469;48.934;12.050;2023-04-05T11:21:04;6.50;75.40
68480;DHT22;55469;48.934;12.050;2023-04-05T11:23:31;6.50;75.50
68480;DHT22;55469;48.934;12.050;2023-04-05T11:26:04;6.50;75.40
68480;DHT22;55469;48.934;12.050;2023-04-05T11:28:35;6.60;75.30
68480;DHT22;55469;48.934;12.050;2023-04-05T11:36:09;6.60;74.80
68480;DHT22;55469;48.934;12.050;2023-04-05T11:38:38;6.70;74.50
68480;DHT22;55469;48.934;12.050;2023-04-05T11:41:12;6.70;74.40
68480;DHT22;55469;48.934;12.050;2023-04-05T11:43:43;6.80;74.00
68480;DHT22;55469;48.934;12.050;2023-04-05T11:46:11;6.90;74.10
68480;DHT22;55469;48.934;12.050;2023-04-05T11:48:40;7.00;73.60
68480;DHT22;55469;48.934;12.050;2023-04-05T11:51:08;7.10;73.80
68480;DHT22;55469;48.934;12.050;2023-04-05T11:53:36;7.10;73.50
68480;DHT22;55469;48.934;12.050;2023-04-05T11:56:06;7.10;73.80
68480;DHT22;55469;48.934;12.050;2023-04-05T11:58:34;7.20;73.80
68480;DHT22;55469;48.934;12.050;2023-04-05T12:01:03;7.30;73.40
68480;DHT22;55469;48.934;12.050;2023-04-05T12:03:31;7.30;73.60
68480;DHT22;55469;48.934;12.050;2023-04-05T12:05:59;7.40;73.50
68480;DHT22;55469;48.934;12.050;2023-04-05T12:08:45;7.40;73.40
68480;DHT22;55469;48.934;12.050;2023-04-05T12:11:33;7.50;73.30
68480;DHT22;55469;48.934;12.050;2023-04-05T12:14:00;7.50;73.20
68480;DHT22;55469;48.934;12.050;2023-04-05T12:16:27;7.50;73.20
68480;DHT22;55469;48.934;12.050;2023-04-05T12:18:58;7.60;73.40
68480;DHT22;55469;48.934;12.050;2023-04-05T12:21:25;7.70;73.40
68480;DHT22;55469;48.934;12.050;2023-04-05T12:23:52;7.70;73.40
68480;DHT22;55469;48.934;12.050;2023-04-05T12:26:18;7.80;73.40
68480;DHT22;55469;48.934;12.050;2023-04-05T12:29:03;7.80;73.40
68480;DHT22;55469;48.934;12.050;2023-04-05T12:34:08;7.90;73.20
68480;DHT22;55469;48.934;12.050;2023-04-05T12:36:35;7.90;73.30
68480;DHT22;55469;48.934;12.050;2023-04-05T12:39:05;7.90;73.20
68480;DHT22;55469;48.934;12.050;2023-04-05T12:41:32;8.00;73.30
68480;DHT22;55469;48.934;12.050;2023-04-05T12:43:58;8.00;73.40
68480;DHT22;55469;48.934;12.050;2023-04-05T12:46:43;8.00;73.50
68480;DHT22;55469;48.934;12.050;2023-04-05T12:49:15;8.10;73.50
68480;DHT22;55469;48.934;12.050;2023-04-05T12:51:42;8.10;73.30
68480;DHT22;55469;48.934;12.050;2023-04-05T12:54:13;8.10;73.30
68480;DHT22;55469;48.934;12.050;2023-04-05T12:56:40;8.10;73.30
68480;DHT22;55469;48.934;12.050;2023-04-05T12:59:06;8.10;73.30
68480;DHT22;55469;48.934;12.050;2023-04-05T13:01:33;8.10;73.30
68480;DHT22;55469;48.934;12.050;2023-04-05T13:04:02;8.10;73.40
68480;DHT22;55469;48.934;12.050;2023-04-05T13:06:31;8.10;73.40
68480;DHT22;55469;48.934;12.050;2023-04-05T13:08:57;8.10;73.10
68480;DHT22;55469;48.934;12.050;2023-04-05T13:11:23;8.10;73.40
68480;DHT22;55469;48.934;12.050;2023-04-05T13:13:49;8.10;73.70
68480;DHT22;55469;48.934;12.050;2023-04-05T13:16:15;8.20;73.20
68480;DHT22;55469;48.934;12.050;2023-04-05T13:18:41;8.20;73.40
68480;DHT22;55469;48.934;12.050;2023-04-05T13:21:06;8.20;72.80
68480;DHT22;55469;48.934;12.050;2023-04-05T13:23:34;8.30;73.40
68480;DHT22;55469;48.934;12.050;2023-04-05T13:26:00;8.30;73.40
68480;DHT22;55469;48.934;12.050;2023-04-05T13:28:26;8.40;73.40
68480;DHT22;55469;48.934;12.050;2023-04-05T13:30:52;8.40;73.20
68480;DHT22;55469;48.934;12.050;2023-04-05T13:33:18;8.50;73.30
68480;DHT22;55469;48.934;12.050;2023-04-05T13:35:44;8.50;72.80
68480;DHT22;55469;48.934;12.050;2023-04-05T13:38:10;8.50;74.00
68480;DHT22;55469;48.934;12.050;2023-04-05T13:40:36;8.60;72.70
68480;DHT22;55469;48.934;12.050;2023-04-05T13:43:02;8.60;72.50
68480;DHT22;55469;48.934;12.050;2023-04-05T13:45:28;8.70;72.50
68480;DHT22;55469;48.934;12.050;2023-04-05T13:47:54;8.80;72.70
68480;DHT22;55469;48.934;12.050;2023-04-05T13:50:20;8.90;72.30
68480;DHT22;55469;48.934;12.050;2023-04-05T13:52:45;8.90;72.10
68480;DHT22;55469;48.934;12.050;2023-04-05T13:55:11;9.00;72.10
68480;DHT22;55469;48.934;12.050;2023-04-05T13:57:37;9.10;72.10
68480;DHT22;55469;48.934;12.050;2023-04-05T14:00:03;9.10;71.80
68480;DHT22;55469;48.934;12.050;2023-04-05T14:02:30;9.10;72.00
68480;DHT22;55469;48.934;12.050;2023-04-05T14:04:56;9.10;71.60
68480;DHT22;55469;48.934;12.050;2023-04-05T14:07:22;9.10;71.60
68480;DHT22;55469;48.934;12.050;2023-04-05T14:09:48;9.20;71.50
68480;DHT22;55469;48.934;12.050;2023-04-05T14:12:14;9.20;71.70
68480;DHT22;55469;48.934;12.050;2023-04-05T14:14:39;9.20;71.70
68480;DHT22;55469;48.934;12.050;2023-04-05T14:17:05;9.20;71.70
68480;DHT22;55469;48.934;12.050;2023-04-05T14:19:32;9.20;71.70
68480;DHT22;55469;48.934;12.050;2023-04-05T14:21:57;9.30;71.70
68480;DHT22;55469;48.934;12.050;2023-04-05T14:24:23;9.20;71.80
68480;DHT22;55469;48.934;12.050;2023-04-05T14:26:49;9.20;71.70
68480;DHT22;55469;48.934;12.050;2023-04-05T14:29:16;9.20;71.70
68480;DHT22;55469;48.934;12.050;2023-04-05T14:31:42;9.30;71.80
68480;DHT22;55469;48.934;12.050;2023-04-05T14:34:08;9.30;72.00
68480;DHT22;55469;48.934;12.050;2023-04-05T14:36:33;9.30;72.10
68480;DHT22;55469;48.934;12.050;2023-04-05T14:38:59;9.30;72.10
68480;DHT22;55469;48.934;12.050;2023-04-05T14:41:25;9.30;71.70
68480;DHT22;55469;48.934;12.050;2023-04-05T14:43:54;9.30;71.60
68480;DHT22;55469;48.934;12.050;2023-04-05T14:46:20;9.40;71.80
68480;DHT22;55469;48.934;12.050;2023-04-05T14:48:46;9.40;71.80
68480;DHT22;55469;48.934;12.050;2023-04-05T14:51:12;9.50;72.10
68480;DHT22;55469;48.934;12.050;2023-04-05T14:53:38;9.50;71.90
68480;DHT22;55469;48.934;12.050;2023-04-05T14:56:04;9.50;71.90
68480;DHT22;55469;48.934;12.050;2023-04-05T14:58:30;9.60;72.00
68480;DHT22;55469;48.934;12.050;2023-04-05T15:00:58;9.70;71.70
68480;DHT22;55469;48.934;12.050;2023-04-05T15:03:24;9.70;71.40
68480;DHT22;55469;48.934;12.050;2023-04-05T15:05:50;9.70;71.30
68480;DHT22;55469;48.934;12.050;2023-04-05T15:08:15;9.80;71.20
68480;DHT22;55469;48.934;12.050;2023-04-05T15:10:41;9.90;71.00
68480;DHT22;55469;48.934;12.050;2023-04-05T15:13:11;10.00;71.20
68480;DHT22;55469;48.934;12.050;2023-04-05T15:15:37;10.10;70.70
68480;DHT22;55469;48.934;12.050;2023-04-05T15:18:04;10.10;70.60
68480;DHT22;55469;48.934;12.050;2023-04-05T15:20:30;10.20;70.60
68480;DHT22;55469;48.934;12.050;2023-04-05T15:22:56;10.20;70.30
68480;DHT22;55469;48.934;12.050;2023-04-05T15:25:22;10.20;70.00
68480;DHT22;55469;48.934;12.050;2023-04-05T15:27:48;10.30;70.10
68480;DHT22;55469;48.934;12.050;2023-04-05T15:30:14;10.20;70.40
68480;DHT22;55469;48.934;12.050;2023-04-05T15:32:40;10.20;70.60
68480;DHT22;55469;48.934;12.050;2023-04-05T15:35:06;10.20;70.70
68480;DHT22;55469;48.934;12.050;2023-04-05T15:37:32;10.20;70.30
68480;DHT22;55469;48.934;12.050;2023-04-05T15:39:57;10.20;70.40
68480;DHT22;55469;48.934;12.050;2023-04-05T15:42:24;10.30;70.40
68480;DHT22;55469;48.934;12.050;2023-04-05T15:44:50;10.40;70.10
68480;DHT22;55469;48.934;12.050;2023-04-05T15:47:16;10.50;70.10
68480;DHT22;55469;48.934;12.050;2023-04-05T15:49:42;10.50;69.70
68480;DHT22;55469;48.934;12.050;2023-04-05T15:52:11;10.60;69.90
68480;DHT22;55469;48.934;12.050;2023-04-05T15:54:37;10.60;69.50
68480;DHT22;55469;48.934;12.050;2023-04-05T15:57:03;10.60;69.50
68480;DHT22;55469;48.934;12.050;2023-04-05T15:59:28;10.70;69.30
68480;DHT22;55469;48.934;12.050;2023-04-05T16:01:54;10.70;69.30
68480;DHT22;55469;48.934;12.050;2023-04-05T16:04:20;10.70;69.40